Key West Nas /Boca Chica Field/ Airport
KNQX : now visible

Airfield :











YOU CAN JOIN US ON...

 
LOGIN :

Register | Disclaimer

   EN    FR    IT 

 









Legend :    VFR   Marginal VFR   IFR   Intensive IFR   Very Intensive IFR
Visi :
Ceiling :
>= 8 km
>= 3000ft
5 to 8 km
1000 to 3000 ft
1500m to 5 km
500 to 1000 ft
800 to 1500m
200 to 500 ft
< 800m
< 200 ft
Symbols :   Thunderstorms  Fog  Heavy snow  Heavy precipitations  Wind > 20 kt






- Airport Elevation : 6 ft


KNQX - Key West Nas /Boca Chica Field/

CURRENT METAR :
  • 230053Z 00000KT 10SM FEW025 BKN120 OVC200 28/23 A2998 RMK AO2 SLP151 T2 SET T02780228 $

EXPIRED METARs :
  • 222353Z 31006KT 10SM FEW025 BKN120 OVC200 28/23 A2996 RMK AO2 SLP145 CB DSNT N-NE T2 SET 60012 T02780228 10289 20250 51017 $
  • 222253Z 36004KT 10SM FEW025 BKN120 OVC200 27/22 A2996 RMK AO2 SLP144 CB DSNT NE T2 SET T02720222 $

TAF COR TAF KNQX
Valid from the 22 at 23:00 until the 23 at 23:00 UTC


2223/2323 VRB06KT 9999 VCTS FEW025CB BKN120 OVC250 QNH2992INS
TEMPO 2301/2307 VRB10G20KT 3200 TSRA BKN020CB
TEMPO 2308/2314 VRB10G20KT 3200 TSRA BKN020CB AUTOMATED SENSOR METWATCH 2302 TIL 2310 T26/2310Z T30/2319Z COR 2315 FN20073
KZMA FIR / North America



MET'MAP, your aeronautical weather chart ! - Copyright ORBIFLY December 2007 - Disclaimer

ORBIFLY MET'MAP TEAM :

Programming & Development : Alexandra Zaïnal
Concept & original design : Baudouin d'Aumeries
Assistance for programming : Marc-Olivier Méhu
Technical & hardware support : Manuel Goepfert

Contact : metmap@orbifly.com




SOURCES & CREDITS :

   NOAA       Earth
Advisory